sensor_id;sensor_type;location;lat;lon;timestamp;temperature;humidity
70068;DHT22;57425;51.616;6.680;2023-05-10T00:00:33;18.10;80.10
70068;DHT22;57425;51.616;6.680;2023-05-10T00:02:59;18.10;80.00
70068;DHT22;57425;51.616;6.680;2023-05-10T00:05:25;18.00;79.80
70068;DHT22;57425;51.616;6.680;2023-05-10T00:07:50;18.00;79.80
70068;DHT22;57425;51.616;6.680;2023-05-10T00:10:16;18.00;79.80
70068;DHT22;57425;51.616;6.680;2023-05-10T00:12:42;18.00;79.80
70068;DHT22;57425;51.616;6.680;2023-05-10T00:15:08;18.00;79.70
70068;DHT22;57425;51.616;6.680;2023-05-10T00:17:34;18.00;79.50
70068;DHT22;57425;51.616;6.680;2023-05-10T00:20:00;17.90;79.50
70068;DHT22;57425;51.616;6.680;2023-05-10T00:22:25;17.90;79.50
70068;DHT22;57425;51.616;6.680;2023-05-10T00:24:51;17.90;79.50
70068;DHT22;57425;51.616;6.680;2023-05-10T00:29:43;17.90;79.00
70068;DHT22;57425;51.616;6.680;2023-05-10T00:32:08;17.90;79.50
70068;DHT22;57425;51.616;6.680;2023-05-10T00:34:34;17.90;91.20
70068;DHT22;57425;51.616;6.680;2023-05-10T00:39:26;17.90;78.80
70068;DHT22;57425;51.616;6.680;2023-05-10T00:41:53;17.80;78.90
70068;DHT22;57425;51.616;6.680;2023-05-10T00:44:19;17.80;79.40
70068;DHT22;57425;51.616;6.680;2023-05-10T00:46:46;17.80;79.50
70068;DHT22;57425;51.616;6.680;2023-05-10T00:49:13;17.70;79.50
70068;DHT22;57425;51.616;6.680;2023-05-10T00:51:38;17.80;79.60
70068;DHT22;57425;51.616;6.680;2023-05-10T00:54:04;17.80;79.60
70068;DHT22;57425;51.616;6.680;2023-05-10T00:56:31;17.80;79.60
70068;DHT22;57425;51.616;6.680;2023-05-10T00:58:56;17.80;79.70
70068;DHT22;57425;51.616;6.680;2023-05-10T01:01:22;17.70;79.70
70068;DHT22;57425;51.616;6.680;2023-05-10T01:03:48;17.70;79.70
70068;DHT22;57425;51.616;6.680;2023-05-10T01:06:14;17.70;79.80
70068;DHT22;57425;51.616;6.680;2023-05-10T01:08:40;17.70;79.80
70068;DHT22;57425;51.616;6.680;2023-05-10T01:11:06;17.70;79.90
70068;DHT22;57425;51.616;6.680;2023-05-10T01:16:05;17.70;79.30
70068;DHT22;57425;51.616;6.680;2023-05-10T01:18:35;17.70;79.80
70068;DHT22;57425;51.616;6.680;2023-05-10T01:24:18;17.60;79.90
70068;DHT22;57425;51.616;6.680;2023-05-10T01:29:36;17.60;79.30
70068;DHT22;57425;51.616;6.680;2023-05-10T01:35:03;17.60;79.90
70068;DHT22;57425;51.616;6.680;2023-05-10T01:37:39;17.60;79.70
70068;DHT22;57425;51.616;6.680;2023-05-10T01:43:03;17.50;79.70
70068;DHT22;57425;51.616;6.680;2023-05-10T02:03:15;17.50;79.30
70068;DHT22;57425;51.616;6.680;2023-05-10T02:05:41;17.50;79.90
70068;DHT22;57425;51.616;6.680;2023-05-10T02:08:10;17.50;79.90
70068;DHT22;57425;51.616;6.680;2023-05-10T02:10:37;17.40;79.90
70068;DHT22;57425;51.616;6.680;2023-05-10T02:13:05;17.50;79.90
70068;DHT22;57425;51.616;6.680;2023-05-10T02:15:33;17.40;79.90
70068;DHT22;57425;51.616;6.680;2023-05-10T02:18:00;17.40;79.80
70068;DHT22;57425;51.616;6.680;2023-05-10T02:20:27;17.40;79.80
70068;DHT22;57425;51.616;6.680;2023-05-10T02:22:54;17.40;79.80
70068;DHT22;57425;51.616;6.680;2023-05-10T02:25:22;17.40;79.80
70068;DHT22;57425;51.616;6.680;2023-05-10T02:27:49;17.40;79.90
70068;DHT22;57425;51.616;6.680;2023-05-10T02:30:15;17.40;79.90
70068;DHT22;57425;51.616;6.680;2023-05-10T02:32:42;17.40;79.90
70068;DHT22;57425;51.616;6.680;2023-05-10T02:35:09;17.40;80.00
70068;DHT22;57425;51.616;6.680;2023-05-10T02:37:37;17.40;80.00
70068;DHT22;57425;51.616;6.680;2023-05-10T02:40:05;17.30;80.40
70068;DHT22;57425;51.616;6.680;2023-05-10T02:42:36;17.40;79.90
70068;DHT22;57425;51.616;6.680;2023-05-10T02:45:05;17.30;79.80
70068;DHT22;57425;51.616;6.680;2023-05-10T02:47:32;17.30;79.80
70068;DHT22;57425;51.616;6.680;2023-05-10T02:49:58;17.30;79.70
70068;DHT22;57425;51.616;6.680;2023-05-10T02:52:27;17.30;79.80
70068;DHT22;57425;51.616;6.680;2023-05-10T02:54:59;17.30;79.80
70068;DHT22;57425;51.616;6.680;2023-05-10T02:57:32;17.30;79.80
70068;DHT22;57425;51.616;6.680;2023-05-10T02:59:59;17.30;79.80
70068;DHT22;57425;51.616;6.680;2023-05-10T03:02:26;17.30;80.40
70068;DHT22;57425;51.616;6.680;2023-05-10T03:04:52;17.20;79.80
70068;DHT22;57425;51.616;6.680;2023-05-10T03:07:18;17.20;80.30
70068;DHT22;57425;51.616;6.680;2023-05-10T03:09:47;17.20;79.70
70068;DHT22;57425;51.616;6.680;2023-05-10T03:12:54;17.20;79.70
70068;DHT22;57425;51.616;6.680;2023-05-10T03:20:36;17.20;79.90
70068;DHT22;57425;51.616;6.680;2023-05-10T03:23:27;17.20;79.90
70068;DHT22;57425;51.616;6.680;2023-05-10T03:25:55;17.20;79.90
70068;DHT22;57425;51.616;6.680;2023-05-10T03:28:24;17.20;79.90
70068;DHT22;57425;51.616;6.680;2023-05-10T03:30:52;17.20;79.90
70068;DHT22;57425;51.616;6.680;2023-05-10T03:33:18;17.20;79.90
70068;DHT22;57425;51.616;6.680;2023-05-10T03:35:44;17.20;79.90
70068;DHT22;57425;51.616;6.680;2023-05-10T03:38:14;17.10;79.90
70068;DHT22;57425;51.616;6.680;2023-05-10T03:40:40;17.10;80.50
70068;DHT22;57425;51.616;6.680;2023-05-10T03:43:05;17.10;80.00
70068;DHT22;57425;51.616;6.680;2023-05-10T03:45:31;17.10;80.00
70068;DHT22;57425;51.616;6.680;2023-05-10T03:47:57;17.10;80.00
70068;DHT22;57425;51.616;6.680;2023-05-10T03:50:24;17.10;80.10
70068;DHT22;57425;51.616;6.680;2023-05-10T03:52:50;17.10;80.10
70068;DHT22;57425;51.616;6.680;2023-05-10T03:55:16;17.10;80.00
70068;DHT22;57425;51.616;6.680;2023-05-10T03:57:42;17.10;80.00
70068;DHT22;57425;51.616;6.680;2023-05-10T04:00:08;17.10;80.00
70068;DHT22;57425;51.616;6.680;2023-05-10T04:02:34;17.10;80.10
70068;DHT22;57425;51.616;6.680;2023-05-10T04:04:59;17.10;80.10
70068;DHT22;57425;51.616;6.680;2023-05-10T04:07:25;17.10;80.10
70068;DHT22;57425;51.616;6.680;2023-05-10T04:09:51;17.00;80.00
70068;DHT22;57425;51.616;6.680;2023-05-10T04:12:16;17.00;80.10
70068;DHT22;57425;51.616;6.680;2023-05-10T04:14:42;17.00;80.10
70068;DHT22;57425;51.616;6.680;2023-05-10T04:17:07;17.00;80.60
70068;DHT22;57425;51.616;6.680;2023-05-10T04:19:33;17.00;80.20
70068;DHT22;57425;51.616;6.680;2023-05-10T04:21:59;17.00;80.10
70068;DHT22;57425;51.616;6.680;2023-05-10T04:24:25;17.00;80.10
70068;DHT22;57425;51.616;6.680;2023-05-10T04:26:51;17.00;80.10
70068;DHT22;57425;51.616;6.680;2023-05-10T04:29:16;17.00;80.10
70068;DHT22;57425;51.616;6.680;2023-05-10T04:31:42;17.00;80.10
70068;DHT22;57425;51.616;6.680;2023-05-10T04:34:08;17.00;80.10
70068;DHT22;57425;51.616;6.680;2023-05-10T04:36:33;17.00;80.10
70068;DHT22;57425;51.616;6.680;2023-05-10T04:39:01;17.00;80.10
70068;DHT22;57425;51.616;6.680;2023-05-10T04:41:28;17.00;80.20
70068;DHT22;57425;51.616;6.680;2023-05-10T04:43:54;17.00;80.30
70068;DHT22;57425;51.616;6.680;2023-05-10T04:46:19;16.90;80.20
70068;DHT22;57425;51.616;6.680;2023-05-10T04:48:45;17.00;80.30
70068;DHT22;57425;51.616;6.680;2023-05-10T04:51:11;16.90;80.20
70068;DHT22;57425;51.616;6.680;2023-05-10T04:53:36;16.90;80.30
70068;DHT22;57425;51.616;6.680;2023-05-10T04:56:02;16.90;80.20
70068;DHT22;57425;51.616;6.680;2023-05-10T04:58:28;16.90;80.30
70068;DHT22;57425;51.616;6.680;2023-05-10T05:00:53;16.90;80.30
70068;DHT22;57425;51.616;6.680;2023-05-10T05:03:19;16.90;80.30
70068;DHT22;57425;51.616;6.680;2023-05-10T05:05:45;16.90;80.40
70068;DHT22;57425;51.616;6.680;2023-05-10T05:08:10;16.90;80.40
70068;DHT22;57425;51.616;6.680;2023-05-10T05:10:36;16.90;80.40
70068;DHT22;57425;51.616;6.680;2023-05-10T05:13:01;16.90;80.40
70068;DHT22;57425;51.616;6.680;2023-05-10T05:15:27;16.90;80.50
70068;DHT22;57425;51.616;6.680;2023-05-10T05:17:53;16.90;80.60
70068;DHT22;57425;51.616;6.680;2023-05-10T05:20:18;16.90;81.10
70068;DHT22;57425;51.616;6.680;2023-05-10T05:22:44;16.90;80.60
70068;DHT22;57425;51.616;6.680;2023-05-10T05:25:10;16.90;80.60
70068;DHT22;57425;51.616;6.680;2023-05-10T05:27:37;16.90;80.70
70068;DHT22;57425;51.616;6.680;2023-05-10T05:30:03;16.90;80.70
70068;DHT22;57425;51.616;6.680;2023-05-10T05:32:29;16.80;80.70
70068;DHT22;57425;51.616;6.680;2023-05-10T05:34:55;16.80;80.70
70068;DHT22;57425;51.616;6.680;2023-05-10T05:37:21;16.80;80.70
70068;DHT22;57425;51.616;6.680;2023-05-10T05:39:48;16.80;80.70
70068;DHT22;57425;51.616;6.680;2023-05-10T05:42:14;16.80;80.80
70068;DHT22;57425;51.616;6.680;2023-05-10T05:44:41;16.80;80.80
70068;DHT22;57425;51.616;6.680;2023-05-10T05:47:07;16.80;80.90
70068;DHT22;57425;51.616;6.680;2023-05-10T05:49:33;16.80;80.90
70068;DHT22;57425;51.616;6.680;2023-05-10T05:52:02;16.80;81.00
70068;DHT22;57425;51.616;6.680;2023-05-10T05:54:28;16.80;81.00
70068;DHT22;57425;51.616;6.680;2023-05-10T05:56:58;16.80;81.00
70068;DHT22;57425;51.616;6.680;2023-05-10T05:59:25;16.80;81.00
70068;DHT22;57425;51.616;6.680;2023-05-10T06:01:51;16.80;81.00
70068;DHT22;57425;51.616;6.680;2023-05-10T06:04:17;16.80;81.00
70068;DHT22;57425;51.616;6.680;2023-05-10T06:06:42;16.80;81.00
70068;DHT22;57425;51.616;6.680;2023-05-10T06:09:08;16.70;81.00
70068;DHT22;57425;51.616;6.680;2023-05-10T06:11:35;16.80;81.10
70068;DHT22;57425;51.616;6.680;2023-05-10T06:14:01;16.80;81.10
70068;DHT22;57425;51.616;6.680;2023-05-10T06:16:27;16.80;81.10
70068;DHT22;57425;51.616;6.680;2023-05-10T06:18:52;16.80;81.10
70068;DHT22;57425;51.616;6.680;2023-05-10T06:21:18;16.80;81.20
70068;DHT22;57425;51.616;6.680;2023-05-10T06:23:43;16.80;81.10
70068;DHT22;57425;51.616;6.680;2023-05-10T06:26:09;16.80;81.20
70068;DHT22;57425;51.616;6.680;2023-05-10T06:28:35;16.80;81.20
70068;DHT22;57425;51.616;6.680;2023-05-10T06:31:03;16.70;81.70
70068;DHT22;57425;51.616;6.680;2023-05-10T06:33:29;16.80;81.20
70068;DHT22;57425;51.616;6.680;2023-05-10T06:35:55;16.80;81.10
70068;DHT22;57425;51.616;6.680;2023-05-10T06:38:21;16.80;81.20
70068;DHT22;57425;51.616;6.680;2023-05-10T06:40:46;16.70;81.20
70068;DHT22;57425;51.616;6.680;2023-05-10T06:43:12;16.70;81.20
70068;DHT22;57425;51.616;6.680;2023-05-10T06:45:38;16.80;81.30
70068;DHT22;57425;51.616;6.680;2023-05-10T06:48:03;16.80;81.90
70068;DHT22;57425;51.616;6.680;2023-05-10T06:50:29;16.80;81.40
70068;DHT22;57425;51.616;6.680;2023-05-10T06:52:54;16.80;81.50
70068;DHT22;57425;51.616;6.680;2023-05-10T06:55:21;16.70;81.50
70068;DHT22;57425;51.616;6.680;2023-05-10T06:57:46;16.70;82.10
70068;DHT22;57425;51.616;6.680;2023-05-10T07:00:13;16.70;81.60
70068;DHT22;57425;51.616;6.680;2023-05-10T07:02:39;16.80;81.70
70068;DHT22;57425;51.616;6.680;2023-05-10T07:05:05;16.80;81.90
70068;DHT22;57425;51.616;6.680;2023-05-10T07:07:31;16.80;81.90
70068;DHT22;57425;51.616;6.680;2023-05-10T07:09:57;16.70;81.90
70068;DHT22;57425;51.616;6.680;2023-05-10T07:12:23;16.80;82.00
70068;DHT22;57425;51.616;6.680;2023-05-10T07:14:49;16.80;82.00
70068;DHT22;57425;51.616;6.680;2023-05-10T07:17:15;16.70;82.00
70068;DHT22;57425;51.616;6.680;2023-05-10T07:19:40;16.80;82.00
70068;DHT22;57425;51.616;6.680;2023-05-10T07:22:06;16.80;81.90
70068;DHT22;57425;51.616;6.680;2023-05-10T07:24:32;16.80;81.80
70068;DHT22;57425;51.616;6.680;2023-05-10T07:26:58;16.80;81.90
70068;DHT22;57425;51.616;6.680;2023-05-10T07:29:24;16.70;81.90
70068;DHT22;57425;51.616;6.680;2023-05-10T07:31:50;16.80;82.00
70068;DHT22;57425;51.616;6.680;2023-05-10T07:34:15;16.70;81.80
70068;DHT22;57425;51.616;6.680;2023-05-10T07:36:41;16.90;81.90
70068;DHT22;57425;51.616;6.680;2023-05-10T07:39:07;16.80;81.80
70068;DHT22;57425;51.616;6.680;2023-05-10T07:41:32;16.70;81.70
70068;DHT22;57425;51.616;6.680;2023-05-10T07:43:58;16.80;81.80
70068;DHT22;57425;51.616;6.680;2023-05-10T07:46:24;16.80;81.90
70068;DHT22;57425;51.616;6.680;2023-05-10T07:48:49;16.70;81.80
70068;DHT22;57425;51.616;6.680;2023-05-10T07:51:15;16.80;82.00
70068;DHT22;57425;51.616;6.680;2023-05-10T07:53:40;16.80;82.00
70068;DHT22;57425;51.616;6.680;2023-05-10T07:56:26;16.80;82.10
70068;DHT22;57425;51.616;6.680;2023-05-10T07:58:58;16.80;82.40
70068;DHT22;57425;51.616;6.680;2023-05-10T08:01:24;16.80;82.20
70068;DHT22;57425;51.616;6.680;2023-05-10T08:03:50;16.80;82.20
70068;DHT22;57425;51.616;6.680;2023-05-10T08:06:17;16.80;82.20
70068;DHT22;57425;51.616;6.680;2023-05-10T08:08:43;16.80;82.30
70068;DHT22;57425;51.616;6.680;2023-05-10T08:11:15;16.80;82.40
70068;DHT22;57425;51.616;6.680;2023-05-10T08:13:40;16.80;82.40
70068;DHT22;57425;51.616;6.680;2023-05-10T08:16:06;16.80;82.60
70068;DHT22;57425;51.616;6.680;2023-05-10T08:18:32;16.80;82.30
70068;DHT22;57425;51.616;6.680;2023-05-10T08:20:58;16.80;82.50
70068;DHT22;57425;51.616;6.680;2023-05-10T08:23:23;16.90;82.70
70068;DHT22;57425;51.616;6.680;2023-05-10T08:25:49;16.90;82.80
70068;DHT22;57425;51.616;6.680;2023-05-10T08:28:15;16.80;82.60
70068;DHT22;57425;51.616;6.680;2023-05-10T08:30:40;16.90;82.60
70068;DHT22;57425;51.616;6.680;2023-05-10T08:33:06;16.80;82.70
70068;DHT22;57425;51.616;6.680;2023-05-10T08:35:31;16.90;83.10
70068;DHT22;57425;51.616;6.680;2023-05-10T08:37:58;16.90;82.50
70068;DHT22;57425;51.616;6.680;2023-05-10T08:40:24;16.90;82.60
70068;DHT22;57425;51.616;6.680;2023-05-10T08:42:59;16.90;82.70
70068;DHT22;57425;51.616;6.680;2023-05-10T08:45:27;16.90;82.70
70068;DHT22;57425;51.616;6.680;2023-05-10T08:47:53;16.90;82.50
70068;DHT22;57425;51.616;6.680;2023-05-10T08:50:20;16.90;82.40
70068;DHT22;57425;51.616;6.680;2023-05-10T08:52:48;16.90;82.10
70068;DHT22;57425;51.616;6.680;2023-05-10T08:55:17;16.90;82.10
70068;DHT22;57425;51.616;6.680;2023-05-10T08:57:43;16.90;82.10
70068;DHT22;57425;51.616;6.680;2023-05-10T09:00:09;17.00;82.10
70068;DHT22;57425;51.616;6.680;2023-05-10T09:02:36;16.90;82.10
70068;DHT22;57425;51.616;6.680;2023-05-10T09:05:03;17.00;82.30
70068;DHT22;57425;51.616;6.680;2023-05-10T09:07:30;17.00;82.40
70068;DHT22;57425;51.616;6.680;2023-05-10T09:09:56;16.90;82.40
70068;DHT22;57425;51.616;6.680;2023-05-10T09:12:22;16.90;82.20
70068;DHT22;57425;51.616;6.680;2023-05-10T09:14:49;16.90;82.80
70068;DHT22;57425;51.616;6.680;2023-05-10T09:17:16;17.00;82.10
70068;DHT22;57425;51.616;6.680;2023-05-10T09:19:41;17.00;82.60
70068;DHT22;57425;51.616;6.680;2023-05-10T09:22:07;17.00;82.00
70068;DHT22;57425;51.616;6.680;2023-05-10T09:24:32;17.00;81.90
70068;DHT22;57425;51.616;6.680;2023-05-10T09:26:58;17.00;82.00
70068;DHT22;57425;51.616;6.680;2023-05-10T09:29:24;17.00;81.90
70068;DHT22;57425;51.616;6.680;2023-05-10T09:31:51;17.00;81.90
70068;DHT22;57425;51.616;6.680;2023-05-10T09:34:18;17.00;81.80
70068;DHT22;57425;51.616;6.680;2023-05-10T09:36:55;17.00;81.70
70068;DHT22;57425;51.616;6.680;2023-05-10T09:39:32;17.00;81.60
70068;DHT22;57425;51.616;6.680;2023-05-10T09:42:02;17.10;81.80
70068;DHT22;57425;51.616;6.680;2023-05-10T09:44:35;17.00;81.90
70068;DHT22;57425;51.616;6.680;2023-05-10T09:47:02;17.00;82.00
70068;DHT22;57425;51.616;6.680;2023-05-10T09:49:28;17.10;81.90
70068;DHT22;57425;51.616;6.680;2023-05-10T09:52:04;17.10;81.90
70068;DHT22;57425;51.616;6.680;2023-05-10T09:54:31;17.10;81.80
70068;DHT22;57425;51.616;6.680;2023-05-10T09:56:57;17.10;81.80
70068;DHT22;57425;51.616;6.680;2023-05-10T09:59:25;17.10;81.80
70068;DHT22;57425;51.616;6.680;2023-05-10T10:01:52;17.10;81.90
70068;DHT22;57425;51.616;6.680;2023-05-10T10:04:17;17.10;82.00
70068;DHT22;57425;51.616;6.680;2023-05-10T10:06:45;17.10;81.80
70068;DHT22;57425;51.616;6.680;2023-05-10T10:09:10;17.10;81.60
70068;DHT22;57425;51.616;6.680;2023-05-10T10:11:37;17.10;81.50
70068;DHT22;57425;51.616;6.680;2023-05-10T10:14:04;17.10;82.00
70068;DHT22;57425;51.616;6.680;2023-05-10T10:16:30;17.10;81.50
70068;DHT22;57425;51.616;6.680;2023-05-10T10:18:57;17.10;81.50
70068;DHT22;57425;51.616;6.680;2023-05-10T10:21:23;17.10;81.60
70068;DHT22;57425;51.616;6.680;2023-05-10T10:23:49;17.10;81.60
70068;DHT22;57425;51.616;6.680;2023-05-10T10:26:16;17.10;81.60
70068;DHT22;57425;51.616;6.680;2023-05-10T10:34:40;17.20;81.70
70068;DHT22;57425;51.616;6.680;2023-05-10T10:37:06;17.10;81.80
70068;DHT22;57425;51.616;6.680;2023-05-10T10:39:32;17.20;81.80
70068;DHT22;57425;51.616;6.680;2023-05-10T10:41:58;17.20;81.70
70068;DHT22;57425;51.616;6.680;2023-05-10T10:52:25;17.20;81.50
70068;DHT22;57425;51.616;6.680;2023-05-10T10:55:11;17.20;81.40
70068;DHT22;57425;51.616;6.680;2023-05-10T11:03:03;17.20;81.40
70068;DHT22;57425;51.616;6.680;2023-05-10T11:05:45;17.20;81.50
70068;DHT22;57425;51.616;6.680;2023-05-10T11:08:27;17.20;81.70
70068;DHT22;57425;51.616;6.680;2023-05-10T11:13:32;17.20;81.80
70068;DHT22;57425;51.616;6.680;2023-05-10T11:16:09;17.20;81.80
70068;DHT22;57425;51.616;6.680;2023-05-10T11:18:36;17.20;81.90
70068;DHT22;57425;51.616;6.680;2023-05-10T11:21:02;17.20;82.10
70068;DHT22;57425;51.616;6.680;2023-05-10T11:23:56;17.20;82.20
70068;DHT22;57425;51.616;6.680;2023-05-10T11:26:24;17.30;82.70
70068;DHT22;57425;51.616;6.680;2023-05-10T11:28:53;17.30;82.80
70068;DHT22;57425;51.616;6.680;2023-05-10T11:31:23;17.30;83.40
70068;DHT22;57425;51.616;6.680;2023-05-10T11:33:53;17.30;82.50
70068;DHT22;57425;51.616;6.680;2023-05-10T11:36:24;17.30;82.80
70068;DHT22;57425;51.616;6.680;2023-05-10T11:38:51;17.30;82.90
70068;DHT22;57425;51.616;6.680;2023-05-10T11:41:19;17.30;82.80
70068;DHT22;57425;51.616;6.680;2023-05-10T11:43:53;17.30;82.70
70068;DHT22;57425;51.616;6.680;2023-05-10T11:46:21;17.30;83.00
70068;DHT22;57425;51.616;6.680;2023-05-10T11:48:49;17.30;83.40
70068;DHT22;57425;51.616;6.680;2023-05-10T11:51:20;17.30;82.70
70068;DHT22;57425;51.616;6.680;2023-05-10T11:53:46;17.30;82.70
70068;DHT22;57425;51.616;6.680;2023-05-10T11:56:12;17.30;83.00
70068;DHT22;57425;51.616;6.680;2023-05-10T11:58:38;17.30;82.90
70068;DHT22;57425;51.616;6.680;2023-05-10T12:01:06;17.30;82.80
70068;DHT22;57425;51.616;6.680;2023-05-10T12:03:32;17.30;82.80
70068;DHT22;57425;51.616;6.680;2023-05-10T12:05:58;17.40;82.80
70068;DHT22;57425;51.616;6.680;2023-05-10T12:08:29;17.40;82.80
70068;DHT22;57425;51.616;6.680;2023-05-10T12:11:05;17.40;82.90
70068;DHT22;57425;51.616;6.680;2023-05-10T12:13:31;17.40;83.70
70068;DHT22;57425;51.616;6.680;2023-05-10T12:15:59;17.40;83.10
70068;DHT22;57425;51.616;6.680;2023-05-10T12:18:39;17.40;82.90
70068;DHT22;57425;51.616;6.680;2023-05-10T12:21:05;17.40;82.80
70068;DHT22;57425;51.616;6.680;2023-05-10T12:23:31;17.40;82.60
70068;DHT22;57425;51.616;6.680;2023-05-10T12:26:02;17.40;82.90
70068;DHT22;57425;51.616;6.680;2023-05-10T12:28:30;17.40;82.20
70068;DHT22;57425;51.616;6.680;2023-05-10T12:30:57;17.40;82.30
70068;DHT22;57425;51.616;6.680;2023-05-10T12:33:23;17.50;82.40
70068;DHT22;57425;51.616;6.680;2023-05-10T12:35:50;17.50;82.50
70068;DHT22;57425;51.616;6.680;2023-05-10T12:38:36;17.50;82.40
70068;DHT22;57425;51.616;6.680;2023-05-10T12:41:08;17.50;82.40
70068;DHT22;57425;51.616;6.680;2023-05-10T12:43:34;17.50;82.40
70068;DHT22;57425;51.616;6.680;2023-05-10T12:46:11;17.50;82.20
70068;DHT22;57425;51.616;6.680;2023-05-10T12:48:38;17.50;82.30
70068;DHT22;57425;51.616;6.680;2023-05-10T12:51:05;17.50;82.20
70068;DHT22;57425;51.616;6.680;2023-05-10T12:53:31;17.50;82.10
70068;DHT22;57425;51.616;6.680;2023-05-10T12:55:57;17.50;82.40
70068;DHT22;57425;51.616;6.680;2023-05-10T12:58:22;17.50;82.40
70068;DHT22;57425;51.616;6.680;2023-05-10T13:00:48;17.60;82.50
70068;DHT22;57425;51.616;6.680;2023-05-10T13:03:14;17.50;82.30
70068;DHT22;57425;51.616;6.680;2023-05-10T13:05:41;17.60;82.40
70068;DHT22;57425;51.616;6.680;2023-05-10T13:08:06;17.60;82.20
70068;DHT22;57425;51.616;6.680;2023-05-10T13:10:32;17.60;81.90
70068;DHT22;57425;51.616;6.680;2023-05-10T13:12:58;17.60;81.80
70068;DHT22;57425;51.616;6.680;2023-05-10T13:15:24;17.60;81.50
70068;DHT22;57425;51.616;6.680;2023-05-10T13:17:50;17.60;81.30
70068;DHT22;57425;51.616;6.680;2023-05-10T13:20:16;17.60;81.20
70068;DHT22;57425;51.616;6.680;2023-05-10T13:22:43;17.60;81.30
70068;DHT22;57425;51.616;6.680;2023-05-10T13:25:10;17.60;81.40
70068;DHT22;57425;51.616;6.680;2023-05-10T13:27:36;17.60;81.40
70068;DHT22;57425;51.616;6.680;2023-05-10T13:30:03;17.60;81.40
70068;DHT22;57425;51.616;6.680;2023-05-10T13:32:29;17.60;81.30
70068;DHT22;57425;51.616;6.680;2023-05-10T13:34:55;17.70;81.30
70068;DHT22;57425;51.616;6.680;2023-05-10T13:37:21;17.70;80.90
70068;DHT22;57425;51.616;6.680;2023-05-10T13:39:47;17.70;80.70
70068;DHT22;57425;51.616;6.680;2023-05-10T13:42:13;17.80;80.70
70068;DHT22;57425;51.616;6.680;2023-05-10T13:44:38;17.70;80.70
70068;DHT22;57425;51.616;6.680;2023-05-10T13:47:04;17.70;80.70
70068;DHT22;57425;51.616;6.680;2023-05-10T13:49:30;17.70;80.90
70068;DHT22;57425;51.616;6.680;2023-05-10T13:51:56;17.70;81.00
70068;DHT22;57425;51.616;6.680;2023-05-10T13:54:23;17.80;80.90
70068;DHT22;57425;51.616;6.680;2023-05-10T13:56:48;17.80;80.60
70068;DHT22;57425;51.616;6.680;2023-05-10T13:59:14;17.70;80.50
70068;DHT22;57425;51.616;6.680;2023-05-10T14:01:42;17.80;81.10
70068;DHT22;57425;51.616;6.680;2023-05-10T14:04:08;17.80;80.40
70068;DHT22;57425;51.616;6.680;2023-05-10T14:06:36;17.80;80.60
70068;DHT22;57425;51.616;6.680;2023-05-10T14:09:05;17.80;80.70
70068;DHT22;57425;51.616;6.680;2023-05-10T14:11:30;17.80;80.70
70068;DHT22;57425;51.616;6.680;2023-05-10T14:13:56;17.80;80.60
70068;DHT22;57425;51.616;6.680;2023-05-10T14:16:21;17.80;80.40
70068;DHT22;57425;51.616;6.680;2023-05-10T14:18:47;17.90;80.60
70068;DHT22;57425;51.616;6.680;2023-05-10T14:21:13;17.90;80.70
70068;DHT22;57425;51.616;6.680;2023-05-10T14:23:39;17.90;81.00
70068;DHT22;57425;51.616;6.680;2023-05-10T14:26:04;17.90;81.10
70068;DHT22;57425;51.616;6.680;2023-05-10T14:28:30;17.90;81.10
70068;DHT22;57425;51.616;6.680;2023-05-10T14:30:56;17.90;81.50
70068;DHT22;57425;51.616;6.680;2023-05-10T14:33:22;17.90;82.00
70068;DHT22;57425;51.616;6.680;2023-05-10T14:35:47;17.90;81.00
70068;DHT22;57425;51.616;6.680;2023-05-10T14:38:13;17.90;80.90
70068;DHT22;57425;51.616;6.680;2023-05-10T14:40:39;17.90;80.60
70068;DHT22;57425;51.616;6.680;2023-05-10T14:43:05;17.90;80.40
70068;DHT22;57425;51.616;6.680;2023-05-10T14:45:30;18.00;80.20
70068;DHT22;57425;51.616;6.680;2023-05-10T14:47:57;18.00;80.00
70068;DHT22;57425;51.616;6.680;2023-05-10T14:50:23;18.00;79.80
70068;DHT22;57425;51.616;6.680;2023-05-10T14:52:49;18.00;79.90
70068;DHT22;57425;51.616;6.680;2023-05-10T14:55:15;18.00;80.00
70068;DHT22;57425;51.616;6.680;2023-05-10T14:57:41;18.00;80.20
70068;DHT22;57425;51.616;6.680;2023-05-10T15:00:07;18.00;80.00
70068;DHT22;57425;51.616;6.680;2023-05-10T15:02:33;18.10;80.10
70068;DHT22;57425;51.616;6.680;2023-05-10T15:04:58;18.00;80.60
70068;DHT22;57425;51.616;6.680;2023-05-10T15:07:24;18.00;80.00
70068;DHT22;57425;51.616;6.680;2023-05-10T15:09:50;18.00;79.90
70068;DHT22;57425;51.616;6.680;2023-05-10T15:12:18;18.00;79.80
70068;DHT22;57425;51.616;6.680;2023-05-10T15:14:43;18.10;80.60
70068;DHT22;57425;51.616;6.680;2023-05-10T15:17:09;18.10;80.00
70068;DHT22;57425;51.616;6.680;2023-05-10T15:19:35;18.10;80.20
70068;DHT22;57425;51.616;6.680;2023-05-10T15:22:01;18.10;80.20
70068;DHT22;57425;51.616;6.680;2023-05-10T15:24:27;18.10;80.50
70068;DHT22;57425;51.616;6.680;2023-05-10T15:26:53;18.10;80.50
70068;DHT22;57425;51.616;6.680;2023-05-10T15:29:19;18.10;80.60
70068;DHT22;57425;51.616;6.680;2023-05-10T15:31:49;18.10;80.90
70068;DHT22;57425;51.616;6.680;2023-05-10T15:34:21;18.10;81.10
70068;DHT22;57425;51.616;6.680;2023-05-10T15:36:46;18.10;81.20
70068;DHT22;57425;51.616;6.680;2023-05-10T15:39:12;18.10;81.40
70068;DHT22;57425;51.616;6.680;2023-05-10T15:41:38;18.10;81.80
70068;DHT22;57425;51.616;6.680;2023-05-10T15:44:03;18.10;81.80
70068;DHT22;57425;51.616;6.680;2023-05-10T15:46:29;18.10;81.60
70068;DHT22;57425;51.616;6.680;2023-05-10T15:48:56;18.10;81.60
70068;DHT22;57425;51.616;6.680;2023-05-10T15:51:22;18.10;81.30
70068;DHT22;57425;51.616;6.680;2023-05-10T15:53:48;18.10;81.20
70068;DHT22;57425;51.616;6.680;2023-05-10T15:56:13;18.10;80.90
70068;DHT22;57425;51.616;6.680;2023-05-10T15:58:40;18.10;80.80
70068;DHT22;57425;51.616;6.680;2023-05-10T16:01:05;18.10;80.80
70068;DHT22;57425;51.616;6.680;2023-05-10T16:03:32;18.10;80.90
70068;DHT22;57425;51.616;6.680;2023-05-10T16:05:58;18.10;80.80
70068;DHT22;57425;51.616;6.680;2023-05-10T16:08:24;18.10;81.10
70068;DHT22;57425;51.616;6.680;2023-05-10T16:10:50;18.10;81.30
70068;DHT22;57425;51.616;6.680;2023-05-10T16:13:16;18.10;81.50
70068;DHT22;57425;51.616;6.680;2023-05-10T16:15:42;18.10;81.70
70068;DHT22;57425;51.616;6.680;2023-05-10T16:18:08;18.00;81.70
70068;DHT22;57425;51.616;6.680;2023-05-10T16:20:33;18.10;81.80
70068;DHT22;57425;51.616;6.680;2023-05-10T16:23:04;18.10;81.80
70068;DHT22;57425;51.616;6.680;2023-05-10T16:25:30;18.10;81.80
70068;DHT22;57425;51.616;6.680;2023-05-10T16:27:57;18.10;81.90
70068;DHT22;57425;51.616;6.680;2023-05-10T16:30:22;18.10;81.80
70068;DHT22;57425;51.616;6.680;2023-05-10T16:32:55;18.10;81.80